sensor_id;sensor_type;location;lat;lon;timestamp;P1;durP1;ratioP1;P2;durP2;ratioP2
71763;SDS011;59602;52.142;5.408;2022-11-20T00:01:20;14.37;;;6.37;;
71763;SDS011;59602;52.142;5.408;2022-11-20T00:03:48;15.15;;;6.63;;
71763;SDS011;59602;52.142;5.408;2022-11-20T00:06:18;15.60;;;6.35;;
71763;SDS011;59602;52.142;5.408;2022-11-20T00:08:46;17.02;;;6.25;;
71763;SDS011;59602;52.142;5.408;2022-11-20T00:11:14;16.83;;;6.32;;
71763;SDS011;59602;52.142;5.408;2022-11-20T00:13:43;13.90;;;6.40;;
71763;SDS011;59602;52.142;5.408;2022-11-20T00:16:11;14.23;;;6.60;;
71763;SDS011;59602;52.142;5.408;2022-11-20T00:18:39;14.38;;;6.20;;
71763;SDS011;59602;52.142;5.408;2022-11-20T00:21:10;13.15;;;6.30;;
71763;SDS011;59602;52.142;5.408;2022-11-20T00:23:39;13.85;;;6.68;;
71763;SDS011;59602;52.142;5.408;2022-11-20T00:26:06;13.10;;;6.30;;
71763;SDS011;59602;52.142;5.408;2022-11-20T00:28:34;15.20;;;6.22;;
71763;SDS011;59602;52.142;5.408;2022-11-20T00:31:03;14.25;;;6.47;;
71763;SDS011;59602;52.142;5.408;2022-11-20T00:33:32;13.00;;;6.18;;
71763;SDS011;59602;52.142;5.408;2022-11-20T00:36:04;13.63;;;6.00;;
71763;SDS011;59602;52.142;5.408;2022-11-20T00:38:32;16.00;;;5.43;;
71763;SDS011;59602;52.142;5.408;2022-11-20T00:41:00;15.65;;;6.68;;
71763;SDS011;59602;52.142;5.408;2022-11-20T00:43:28;13.18;;;5.57;;
71763;SDS011;59602;52.142;5.408;2022-11-20T00:45:58;11.75;;;5.70;;
71763;SDS011;59602;52.142;5.408;2022-11-20T00:48:25;15.55;;;6.72;;
71763;SDS011;59602;52.142;5.408;2022-11-20T00:50:53;16.20;;;7.47;;
71763;SDS011;59602;52.142;5.408;2022-11-20T00:53:20;15.43;;;6.47;;
71763;SDS011;59602;52.142;5.408;2022-11-20T00:58:19;18.08;;;6.95;;
71763;SDS011;59602;52.142;5.408;2022-11-20T01:00:46;15.45;;;7.05;;
71763;SDS011;59602;52.142;5.408;2022-11-20T01:03:12;16.93;;;7.57;;
71763;SDS011;59602;52.142;5.408;2022-11-20T01:05:39;20.80;;;7.60;;
71763;SDS011;59602;52.142;5.408;2022-11-20T01:08:05;15.20;;;6.57;;
71763;SDS011;59602;52.142;5.408;2022-11-20T01:10:32;16.90;;;7.22;;
71763;SDS011;59602;52.142;5.408;2022-11-20T01:12:59;15.27;;;7.00;;
71763;SDS011;59602;52.142;5.408;2022-11-20T01:15:50;15.20;;;6.13;;
71763;SDS011;59602;52.142;5.408;2022-11-20T01:18:17;16.98;;;7.30;;
71763;SDS011;59602;52.142;5.408;2022-11-20T01:20:43;17.10;;;6.35;;
71763;SDS011;59602;52.142;5.408;2022-11-20T01:23:10;19.13;;;7.38;;
71763;SDS011;59602;52.142;5.408;2022-11-20T01:25:36;20.95;;;7.97;;
71763;SDS011;59602;52.142;5.408;2022-11-20T01:28:03;17.63;;;7.33;;
71763;SDS011;59602;52.142;5.408;2022-11-20T01:30:29;18.92;;;7.50;;
71763;SDS011;59602;52.142;5.408;2022-11-20T01:32:56;20.13;;;8.32;;
71763;SDS011;59602;52.142;5.408;2022-11-20T01:35:22;14.85;;;6.40;;
71763;SDS011;59602;52.142;5.408;2022-11-20T01:37:49;16.00;;;7.00;;
71763;SDS011;59602;52.142;5.408;2022-11-20T01:40:16;17.47;;;7.00;;
71763;SDS011;59602;52.142;5.408;2022-11-20T01:42:46;16.73;;;6.53;;
71763;SDS011;59602;52.142;5.408;2022-11-20T01:45:52;12.93;;;6.38;;
71763;SDS011;59602;52.142;5.408;2022-11-20T01:48:24;15.70;;;6.35;;
71763;SDS011;59602;52.142;5.408;2022-11-20T01:50:55;19.70;;;7.07;;
71763;SDS011;59602;52.142;5.408;2022-11-20T01:53:25;15.27;;;6.40;;
71763;SDS011;59602;52.142;5.408;2022-11-20T01:55:58;16.52;;;6.80;;
71763;SDS011;59602;52.142;5.408;2022-11-20T01:58:30;17.38;;;6.75;;
71763;SDS011;59602;52.142;5.408;2022-11-20T02:01:00;16.42;;;6.95;;
71763;SDS011;59602;52.142;5.408;2022-11-20T02:03:27;19.85;;;6.88;;
71763;SDS011;59602;52.142;5.408;2022-11-20T02:08:33;22.42;;;7.20;;
71763;SDS011;59602;52.142;5.408;2022-11-20T02:11:00;16.92;;;7.00;;
71763;SDS011;59602;52.142;5.408;2022-11-20T02:13:26;17.48;;;6.75;;
71763;SDS011;59602;52.142;5.408;2022-11-20T02:16:12;17.55;;;6.53;;
71763;SDS011;59602;52.142;5.408;2022-11-20T02:18:42;16.23;;;6.77;;
71763;SDS011;59602;52.142;5.408;2022-11-20T02:21:13;16.05;;;6.15;;
71763;SDS011;59602;52.142;5.408;2022-11-20T02:26:26;14.55;;;5.78;;
71763;SDS011;59602;52.142;5.408;2022-11-20T02:28:55;15.88;;;6.10;;
71763;SDS011;59602;52.142;5.408;2022-11-20T02:31:24;15.13;;;7.13;;
71763;SDS011;59602;52.142;5.408;2022-11-20T02:33:54;15.25;;;5.78;;
71763;SDS011;59602;52.142;5.408;2022-11-20T02:36:22;14.60;;;6.13;;
71763;SDS011;59602;52.142;5.408;2022-11-20T02:38:52;11.18;;;5.18;;
71763;SDS011;59602;52.142;5.408;2022-11-20T02:41:18;13.70;;;5.88;;
71763;SDS011;59602;52.142;5.408;2022-11-20T02:43:45;12.43;;;5.53;;
71763;SDS011;59602;52.142;5.408;2022-11-20T02:46:12;13.73;;;6.00;;
71763;SDS011;59602;52.142;5.408;2022-11-20T02:48:39;13.00;;;5.65;;
71763;SDS011;59602;52.142;5.408;2022-11-20T02:51:05;12.65;;;6.13;;
71763;SDS011;59602;52.142;5.408;2022-11-20T02:53:33;16.13;;;6.15;;
71763;SDS011;59602;52.142;5.408;2022-11-20T02:55:59;14.20;;;6.03;;
71763;SDS011;59602;52.142;5.408;2022-11-20T02:58:27;18.52;;;7.10;;
71763;SDS011;59602;52.142;5.408;2022-11-20T03:00:53;17.25;;;6.68;;
71763;SDS011;59602;52.142;5.408;2022-11-20T03:03:20;16.10;;;6.53;;
71763;SDS011;59602;52.142;5.408;2022-11-20T03:05:48;15.48;;;6.43;;
71763;SDS011;59602;52.142;5.408;2022-11-20T03:08:15;13.63;;;6.17;;
71763;SDS011;59602;52.142;5.408;2022-11-20T03:10:41;16.40;;;6.78;;
71763;SDS011;59602;52.142;5.408;2022-11-20T03:13:08;17.67;;;7.00;;
71763;SDS011;59602;52.142;5.408;2022-11-20T03:15:36;16.42;;;5.95;;
71763;SDS011;59602;52.142;5.408;2022-11-20T03:18:03;14.63;;;6.45;;
71763;SDS011;59602;52.142;5.408;2022-11-20T03:20:30;15.50;;;7.00;;
71763;SDS011;59602;52.142;5.408;2022-11-20T03:22:59;16.42;;;6.88;;
71763;SDS011;59602;52.142;5.408;2022-11-20T03:25:26;13.25;;;6.63;;
71763;SDS011;59602;52.142;5.408;2022-11-20T03:27:53;17.80;;;6.85;;
71763;SDS011;59602;52.142;5.408;2022-11-20T03:30:20;18.20;;;7.90;;
71763;SDS011;59602;52.142;5.408;2022-11-20T03:32:52;18.40;;;8.10;;
71763;SDS011;59602;52.142;5.408;2022-11-20T03:35:19;18.60;;;8.63;;
71763;SDS011;59602;52.142;5.408;2022-11-20T03:37:46;17.92;;;8.68;;
71763;SDS011;59602;52.142;5.408;2022-11-20T03:40:13;18.40;;;8.52;;
71763;SDS011;59602;52.142;5.408;2022-11-20T03:42:39;19.92;;;9.18;;
71763;SDS011;59602;52.142;5.408;2022-11-20T03:45:11;16.53;;;8.73;;
71763;SDS011;59602;52.142;5.408;2022-11-20T03:47:40;18.30;;;9.40;;
71763;SDS011;59602;52.142;5.408;2022-11-20T03:50:06;17.42;;;8.80;;
71763;SDS011;59602;52.142;5.408;2022-11-20T03:52:34;16.52;;;7.78;;
71763;SDS011;59602;52.142;5.408;2022-11-20T03:55:01;16.95;;;8.43;;
71763;SDS011;59602;52.142;5.408;2022-11-20T03:57:28;18.47;;;8.30;;
71763;SDS011;59602;52.142;5.408;2022-11-20T03:59:55;18.15;;;8.35;;
71763;SDS011;59602;52.142;5.408;2022-11-20T04:02:21;20.33;;;8.82;;
71763;SDS011;59602;52.142;5.408;2022-11-20T04:04:48;18.88;;;7.63;;
71763;SDS011;59602;52.142;5.408;2022-11-20T04:07:15;14.38;;;8.02;;
71763;SDS011;59602;52.142;5.408;2022-11-20T04:09:41;17.80;;;8.17;;
71763;SDS011;59602;52.142;5.408;2022-11-20T04:12:08;24.27;;;9.93;;
71763;SDS011;59602;52.142;5.408;2022-11-20T04:14:35;22.85;;;10.38;;
71763;SDS011;59602;52.142;5.408;2022-11-20T04:17:02;27.10;;;11.30;;
71763;SDS011;59602;52.142;5.408;2022-11-20T04:19:29;24.75;;;9.80;;
71763;SDS011;59602;52.142;5.408;2022-11-20T04:21:56;26.73;;;11.50;;
71763;SDS011;59602;52.142;5.408;2022-11-20T04:24:22;30.33;;;11.05;;
71763;SDS011;59602;52.142;5.408;2022-11-20T04:26:49;19.38;;;8.05;;
71763;SDS011;59602;52.142;5.408;2022-11-20T04:29:15;16.27;;;7.22;;
71763;SDS011;59602;52.142;5.408;2022-11-20T04:31:42;16.63;;;6.97;;
71763;SDS011;59602;52.142;5.408;2022-11-20T04:34:11;14.77;;;5.83;;
71763;SDS011;59602;52.142;5.408;2022-11-20T04:36:37;13.60;;;6.00;;
71763;SDS011;59602;52.142;5.408;2022-11-20T04:39:05;14.43;;;6.10;;
71763;SDS011;59602;52.142;5.408;2022-11-20T04:41:34;17.08;;;6.43;;
71763;SDS011;59602;52.142;5.408;2022-11-20T04:44:02;15.70;;;6.72;;
71763;SDS011;59602;52.142;5.408;2022-11-20T04:46:33;12.13;;;5.93;;
71763;SDS011;59602;52.142;5.408;2022-11-20T04:49:03;15.18;;;6.53;;
71763;SDS011;59602;52.142;5.408;2022-11-20T04:51:30;13.80;;;5.95;;
71763;SDS011;59602;52.142;5.408;2022-11-20T04:53:57;16.30;;;6.45;;
71763;SDS011;59602;52.142;5.408;2022-11-20T04:56:23;16.60;;;7.30;;
71763;SDS011;59602;52.142;5.408;2022-11-20T04:58:50;16.50;;;6.80;;
71763;SDS011;59602;52.142;5.408;2022-11-20T05:01:18;13.40;;;6.30;;
71763;SDS011;59602;52.142;5.408;2022-11-20T05:03:46;16.30;;;6.32;;
71763;SDS011;59602;52.142;5.408;2022-11-20T05:06:14;14.05;;;6.47;;
71763;SDS011;59602;52.142;5.408;2022-11-20T05:08:42;13.88;;;5.90;;
71763;SDS011;59602;52.142;5.408;2022-11-20T05:11:11;13.13;;;5.53;;
71763;SDS011;59602;52.142;5.408;2022-11-20T05:13:40;14.30;;;5.97;;
71763;SDS011;59602;52.142;5.408;2022-11-20T05:16:10;14.35;;;6.55;;
71763;SDS011;59602;52.142;5.408;2022-11-20T05:18:41;13.80;;;5.97;;
71763;SDS011;59602;52.142;5.408;2022-11-20T05:21:09;12.93;;;5.93;;
71763;SDS011;59602;52.142;5.408;2022-11-20T05:23:38;13.17;;;5.47;;
71763;SDS011;59602;52.142;5.408;2022-11-20T05:26:06;11.75;;;5.82;;
71763;SDS011;59602;52.142;5.408;2022-11-20T05:28:34;20.13;;;7.68;;
71763;SDS011;59602;52.142;5.408;2022-11-20T05:31:05;18.50;;;8.23;;
71763;SDS011;59602;52.142;5.408;2022-11-20T05:33:32;16.83;;;7.65;;
71763;SDS011;59602;52.142;5.408;2022-11-20T05:36:00;17.63;;;7.73;;
71763;SDS011;59602;52.142;5.408;2022-11-20T05:38:28;15.20;;;6.38;;
71763;SDS011;59602;52.142;5.408;2022-11-20T05:40:55;12.30;;;5.80;;
71763;SDS011;59602;52.142;5.408;2022-11-20T05:43:21;15.10;;;5.78;;
71763;SDS011;59602;52.142;5.408;2022-11-20T05:45:51;12.45;;;5.47;;
71763;SDS011;59602;52.142;5.408;2022-11-20T05:48:20;11.57;;;5.27;;
71763;SDS011;59602;52.142;5.408;2022-11-20T05:50:47;13.27;;;5.88;;
71763;SDS011;59602;52.142;5.408;2022-11-20T05:53:14;13.43;;;6.18;;
71763;SDS011;59602;52.142;5.408;2022-11-20T05:55:41;12.75;;;5.63;;
71763;SDS011;59602;52.142;5.408;2022-11-20T05:58:07;10.70;;;5.28;;
71763;SDS011;59602;52.142;5.408;2022-11-20T06:00:34;10.73;;;5.47;;
71763;SDS011;59602;52.142;5.408;2022-11-20T06:03:01;17.02;;;6.68;;
71763;SDS011;59602;52.142;5.408;2022-11-20T06:05:28;11.60;;;5.28;;
71763;SDS011;59602;52.142;5.408;2022-11-20T06:07:54;10.88;;;5.15;;
71763;SDS011;59602;52.142;5.408;2022-11-20T06:10:21;12.98;;;5.72;;
71763;SDS011;59602;52.142;5.408;2022-11-20T06:12:47;11.80;;;5.30;;
71763;SDS011;59602;52.142;5.408;2022-11-20T06:15:14;12.02;;;5.28;;
71763;SDS011;59602;52.142;5.408;2022-11-20T06:17:40;13.48;;;5.70;;
71763;SDS011;59602;52.142;5.408;2022-11-20T06:20:07;11.52;;;5.18;;
71763;SDS011;59602;52.142;5.408;2022-11-20T06:22:34;11.40;;;5.15;;
71763;SDS011;59602;52.142;5.408;2022-11-20T06:25:00;13.63;;;5.20;;
71763;SDS011;59602;52.142;5.408;2022-11-20T06:27:27;13.50;;;4.93;;
71763;SDS011;59602;52.142;5.408;2022-11-20T06:29:53;13.13;;;5.28;;
71763;SDS011;59602;52.142;5.408;2022-11-20T06:32:20;10.85;;;5.32;;
71763;SDS011;59602;52.142;5.408;2022-11-20T06:34:46;12.70;;;5.10;;
71763;SDS011;59602;52.142;5.408;2022-11-20T06:37:13;13.50;;;5.43;;
71763;SDS011;59602;52.142;5.408;2022-11-20T06:39:39;10.73;;;5.15;;
71763;SDS011;59602;52.142;5.408;2022-11-20T06:42:06;10.63;;;5.13;;
71763;SDS011;59602;52.142;5.408;2022-11-20T06:44:32;13.15;;;5.53;;
71763;SDS011;59602;52.142;5.408;2022-11-20T06:46:59;12.75;;;4.57;;
71763;SDS011;59602;52.142;5.408;2022-11-20T06:49:25;12.47;;;5.10;;
71763;SDS011;59602;52.142;5.408;2022-11-20T06:51:52;10.07;;;4.30;;
71763;SDS011;59602;52.142;5.408;2022-11-20T06:54:18;12.65;;;4.88;;
71763;SDS011;59602;52.142;5.408;2022-11-20T06:56:46;11.35;;;5.15;;
71763;SDS011;59602;52.142;5.408;2022-11-20T06:59:14;12.23;;;5.20;;
71763;SDS011;59602;52.142;5.408;2022-11-20T07:01:40;13.23;;;4.83;;
71763;SDS011;59602;52.142;5.408;2022-11-20T07:04:07;10.95;;;4.63;;
71763;SDS011;59602;52.142;5.408;2022-11-20T07:06:34;11.52;;;5.10;;
71763;SDS011;59602;52.142;5.408;2022-11-20T07:15:41;17.27;;;7.10;;
71763;SDS011;59602;52.142;5.408;2022-11-20T07:23:16;22.90;;;9.35;;
71763;SDS011;59602;52.142;5.408;2022-11-20T07:28:29;12.30;;;5.53;;
71763;SDS011;59602;52.142;5.408;2022-11-20T07:38:22;10.63;;;4.97;;
71763;SDS011;59602;52.142;5.408;2022-11-20T07:49:14;13.77;;;5.43;;
71763;SDS011;59602;52.142;5.408;2022-11-20T07:51:41;12.40;;;4.72;;
71763;SDS011;59602;52.142;5.408;2022-11-20T07:54:07;12.63;;;4.72;;
71763;SDS011;59602;52.142;5.408;2022-11-20T07:56:34;12.07;;;4.97;;
71763;SDS011;59602;52.142;5.408;2022-11-20T07:59:00;12.43;;;4.70;;
71763;SDS011;59602;52.142;5.408;2022-11-20T08:01:27;11.68;;;5.75;;
71763;SDS011;59602;52.142;5.408;2022-11-20T08:03:53;10.38;;;5.15;;
71763;SDS011;59602;52.142;5.408;2022-11-20T08:06:20;12.65;;;5.47;;
71763;SDS011;59602;52.142;5.408;2022-11-20T08:08:46;12.15;;;5.30;;
71763;SDS011;59602;52.142;5.408;2022-11-20T08:11:13;15.20;;;5.70;;
71763;SDS011;59602;52.142;5.408;2022-11-20T08:13:58;14.40;;;6.10;;
71763;SDS011;59602;52.142;5.408;2022-11-20T08:16:38;14.07;;;5.43;;
71763;SDS011;59602;52.142;5.408;2022-11-20T08:19:05;15.13;;;5.35;;
71763;SDS011;59602;52.142;5.408;2022-11-20T08:21:33;12.32;;;5.15;;
71763;SDS011;59602;52.142;5.408;2022-11-20T08:24:03;13.17;;;5.33;;
71763;SDS011;59602;52.142;5.408;2022-11-20T08:26:31;13.55;;;5.78;;
71763;SDS011;59602;52.142;5.408;2022-11-20T08:28:57;12.70;;;5.55;;
71763;SDS011;59602;52.142;5.408;2022-11-20T08:31:25;13.88;;;5.97;;
71763;SDS011;59602;52.142;5.408;2022-11-20T08:33:53;15.68;;;5.80;;
71763;SDS011;59602;52.142;5.408;2022-11-20T08:36:20;14.43;;;6.50;;
71763;SDS011;59602;52.142;5.408;2022-11-20T08:38:48;13.52;;;5.43;;
71763;SDS011;59602;52.142;5.408;2022-11-20T08:41:17;14.07;;;6.63;;
71763;SDS011;59602;52.142;5.408;2022-11-20T08:43:50;16.58;;;6.60;;
71763;SDS011;59602;52.142;5.408;2022-11-20T08:46:17;14.43;;;6.38;;
71763;SDS011;59602;52.142;5.408;2022-11-20T08:48:43;12.80;;;5.97;;
71763;SDS011;59602;52.142;5.408;2022-11-20T08:51:11;16.55;;;6.38;;
71763;SDS011;59602;52.142;5.408;2022-11-20T08:53:38;13.90;;;6.25;;
71763;SDS011;59602;52.142;5.408;2022-11-20T08:56:05;14.05;;;6.20;;
71763;SDS011;59602;52.142;5.408;2022-11-20T08:58:32;16.05;;;6.30;;
71763;SDS011;59602;52.142;5.408;2022-11-20T09:01:20;15.83;;;6.47;;
71763;SDS011;59602;52.142;5.408;2022-11-20T09:03:47;13.32;;;6.07;;
71763;SDS011;59602;52.142;5.408;2022-11-20T09:06:15;16.70;;;6.68;;
71763;SDS011;59602;52.142;5.408;2022-11-20T09:08:42;13.90;;;6.32;;
71763;SDS011;59602;52.142;5.408;2022-11-20T09:11:09;15.90;;;6.60;;
71763;SDS011;59602;52.142;5.408;2022-11-20T09:13:36;15.33;;;7.03;;
71763;SDS011;59602;52.142;5.408;2022-11-20T09:16:04;15.55;;;6.70;;
71763;SDS011;59602;52.142;5.408;2022-11-20T09:18:32;14.80;;;6.47;;
71763;SDS011;59602;52.142;5.408;2022-11-20T09:21:02;15.32;;;6.45;;
71763;SDS011;59602;52.142;5.408;2022-11-20T09:23:32;15.23;;;7.35;;
71763;SDS011;59602;52.142;5.408;2022-11-20T09:26:02;19.93;;;7.13;;
71763;SDS011;59602;52.142;5.408;2022-11-20T09:28:30;18.73;;;6.80;;
71763;SDS011;59602;52.142;5.408;2022-11-20T09:30:57;15.85;;;6.55;;
71763;SDS011;59602;52.142;5.408;2022-11-20T09:33:24;16.75;;;6.65;;
71763;SDS011;59602;52.142;5.408;2022-11-20T09:35:50;15.88;;;6.75;;
71763;SDS011;59602;52.142;5.408;2022-11-20T09:38:17;15.53;;;7.17;;
71763;SDS011;59602;52.142;5.408;2022-11-20T09:40:45;14.30;;;6.72;;
71763;SDS011;59602;52.142;5.408;2022-11-20T09:43:22;21.15;;;7.05;;
71763;SDS011;59602;52.142;5.408;2022-11-20T09:45:56;13.48;;;6.85;;
71763;SDS011;59602;52.142;5.408;2022-11-20T09:48:43;17.85;;;6.93;;
71763;SDS011;59602;52.142;5.408;2022-11-20T09:54:16;16.63;;;7.03;;
71763;SDS011;59602;52.142;5.408;2022-11-20T09:56:45;15.98;;;6.60;;
71763;SDS011;59602;52.142;5.408;2022-11-20T09:59:23;15.60;;;7.03;;
71763;SDS011;59602;52.142;5.408;2022-11-20T10:02:15;15.90;;;6.72;;
71763;SDS011;59602;52.142;5.408;2022-11-20T10:04:53;15.57;;;7.37;;
71763;SDS011;59602;52.142;5.408;2022-11-20T10:07:34;16.27;;;7.40;;
71763;SDS011;59602;52.142;5.408;2022-11-20T10:10:14;17.90;;;7.53;;
71763;SDS011;59602;52.142;5.408;2022-11-20T10:12:48;17.58;;;8.15;;
71763;SDS011;59602;52.142;5.408;2022-11-20T10:15:31;17.85;;;7.18;;
71763;SDS011;59602;52.142;5.408;2022-11-20T10:18:13;20.43;;;8.47;;
71763;SDS011;59602;52.142;5.408;2022-11-20T10:20:55;15.48;;;7.05;;
71763;SDS011;59602;52.142;5.408;2022-11-20T10:31:27;17.53;;;7.20;;
71763;SDS011;59602;52.142;5.408;2022-11-20T10:33:59;18.25;;;7.47;;
71763;SDS011;59602;52.142;5.408;2022-11-20T10:36:46;17.77;;;7.30;;
71763;SDS011;59602;52.142;5.408;2022-11-20T10:39:21;17.80;;;7.55;;
71763;SDS011;59602;52.142;5.408;2022-11-20T10:41:54;17.20;;;8.27;;
71763;SDS011;59602;52.142;5.408;2022-11-20T10:44:27;16.47;;;7.93;;
71763;SDS011;59602;52.142;5.408;2022-11-20T10:47:18;19.40;;;7.70;;
71763;SDS011;59602;52.142;5.408;2022-11-20T10:49:46;19.05;;;7.90;;
71763;SDS011;59602;52.142;5.408;2022-11-20T10:52:34;16.02;;;7.80;;
71763;SDS011;59602;52.142;5.408;2022-11-20T10:57:55;17.07;;;8.00;;
71763;SDS011;59602;52.142;5.408;2022-11-20T11:00:31;17.58;;;7.15;;
71763;SDS011;59602;52.142;5.408;2022-11-20T11:02:58;19.25;;;8.75;;
71763;SDS011;59602;52.142;5.408;2022-11-20T11:05:36;18.98;;;8.80;;
71763;SDS011;59602;52.142;5.408;2022-11-20T11:08:10;17.30;;;8.15;;
71763;SDS011;59602;52.142;5.408;2022-11-20T11:10:45;18.90;;;8.13;;
71763;SDS011;59602;52.142;5.408;2022-11-20T11:13:19;22.65;;;9.38;;
71763;SDS011;59602;52.142;5.408;2022-11-20T11:15:53;22.15;;;8.43;;
71763;SDS011;59602;52.142;5.408;2022-11-20T11:18:25;32.88;;;10.82;;
71763;SDS011;59602;52.142;5.408;2022-11-20T11:20:53;22.15;;;9.30;;
71763;SDS011;59602;52.142;5.408;2022-11-20T11:23:26;18.60;;;8.60;;
71763;SDS011;59602;52.142;5.408;2022-11-20T11:26:01;21.25;;;8.38;;
71763;SDS011;59602;52.142;5.408;2022-11-20T11:28:30;20.65;;;9.27;;
71763;SDS011;59602;52.142;5.408;2022-11-20T11:30:57;24.33;;;9.88;;
71763;SDS011;59602;52.142;5.408;2022-11-20T11:33:25;20.20;;;8.70;;
71763;SDS011;59602;52.142;5.408;2022-11-20T11:35:55;22.57;;;8.93;;
71763;SDS011;59602;52.142;5.408;2022-11-20T11:38:33;21.80;;;9.32;;
71763;SDS011;59602;52.142;5.408;2022-11-20T11:41:01;26.55;;;10.68;;
71763;SDS011;59602;52.142;5.408;2022-11-20T11:43:30;22.98;;;9.73;;
71763;SDS011;59602;52.142;5.408;2022-11-20T11:46:24;20.90;;;8.38;;
71763;SDS011;59602;52.142;5.408;2022-11-20T11:49:00;22.50;;;9.17;;
71763;SDS011;59602;52.142;5.408;2022-11-20T11:51:39;19.73;;;9.43;;
71763;SDS011;59602;52.142;5.408;2022-11-20T11:54:34;21.90;;;9.45;;
71763;SDS011;59602;52.142;5.408;2022-11-20T11:57:10;22.23;;;10.07;;
71763;SDS011;59602;52.142;5.408;2022-11-20T12:02:27;23.90;;;9.53;;
71763;SDS011;59602;52.142;5.408;2022-11-20T12:05:00;21.27;;;8.75;;
71763;SDS011;59602;52.142;5.408;2022-11-20T12:10:14;21.67;;;9.50;;
71763;SDS011;59602;52.142;5.408;2022-11-20T12:12:51;25.83;;;9.73;;
71763;SDS011;59602;52.142;5.408;2022-11-20T12:15:28;22.03;;;10.00;;
71763;SDS011;59602;52.142;5.408;2022-11-20T12:17:56;23.55;;;9.27;;
71763;SDS011;59602;52.142;5.408;2022-11-20T12:20:24;24.52;;;10.43;;
71763;SDS011;59602;52.142;5.408;2022-11-20T12:22:57;21.58;;;9.93;;
71763;SDS011;59602;52.142;5.408;2022-11-20T12:25:37;26.55;;;10.98;;
71763;SDS011;59602;52.142;5.408;2022-11-20T12:30:33;23.52;;;10.30;;
71763;SDS011;59602;52.142;5.408;2022-11-20T12:36:08;22.55;;;9.40;;
71763;SDS011;59602;52.142;5.408;2022-11-20T12:47:31;23.92;;;10.50;;
71763;SDS011;59602;52.142;5.408;2022-11-20T12:50:15;22.60;;;9.05;;
71763;SDS011;59602;52.142;5.408;2022-11-20T12:53:01;24.02;;;10.35;;
71763;SDS011;59602;52.142;5.408;2022-11-20T12:55:40;25.73;;;11.23;;
71763;SDS011;59602;52.142;5.408;2022-11-20T12:58:27;24.38;;;9.57;;
71763;SDS011;59602;52.142;5.408;2022-11-20T13:01:16;20.52;;;9.25;;
71763;SDS011;59602;52.142;5.408;2022-11-20T13:04:16;21.67;;;9.25;;
71763;SDS011;59602;52.142;5.408;2022-11-20T13:06:46;24.38;;;10.10;;
71763;SDS011;59602;52.142;5.408;2022-11-20T13:09:14;25.97;;;10.33;;
71763;SDS011;59602;52.142;5.408;2022-11-20T13:11:44;21.77;;;9.88;;
71763;SDS011;59602;52.142;5.408;2022-11-20T13:17:05;22.35;;;9.55;;
71763;SDS011;59602;52.142;5.408;2022-11-20T13:19:41;20.25;;;9.40;;
71763;SDS011;59602;52.142;5.408;2022-11-20T13:22:08;24.77;;;9.50;;
71763;SDS011;59602;52.142;5.408;2022-11-20T13:24:35;23.55;;;10.13;;
71763;SDS011;59602;52.142;5.408;2022-11-20T13:27:03;27.63;;;10.88;;
71763;SDS011;59602;52.142;5.408;2022-11-20T13:29:30;24.92;;;9.90;;
71763;SDS011;59602;52.142;5.408;2022-11-20T13:32:02;24.02;;;9.32;;
71763;SDS011;59602;52.142;5.408;2022-11-20T13:34:33;22.30;;;9.77;;
71763;SDS011;59602;52.142;5.408;2022-11-20T13:37:02;22.13;;;9.18;;
71763;SDS011;59602;52.142;5.408;2022-11-20T13:39:31;27.55;;;9.52;;
71763;SDS011;59602;52.142;5.408;2022-11-20T13:41:58;22.88;;;9.48;;
71763;SDS011;59602;52.142;5.408;2022-11-20T13:44:29;23.65;;;9.73;;
71763;SDS011;59602;52.142;5.408;2022-11-20T13:47:01;24.77;;;10.00;;
71763;SDS011;59602;52.142;5.408;2022-11-20T13:49:33;21.63;;;9.73;;
71763;SDS011;59602;52.142;5.408;2022-11-20T13:55:11;23.38;;;9.55;;
71763;SDS011;59602;52.142;5.408;2022-11-20T14:00:19;22.37;;;10.00;;
71763;SDS011;59602;52.142;5.408;2022-11-20T14:02:57;21.60;;;9.18;;
71763;SDS011;59602;52.142;5.408;2022-11-20T14:05:28;23.38;;;9.55;;
71763;SDS011;59602;52.142;5.408;2022-11-20T14:08:00;24.73;;;9.77;;
71763;SDS011;59602;52.142;5.408;2022-11-20T14:10:31;24.33;;;9.65;;
71763;SDS011;59602;52.142;5.408;2022-11-20T14:12:58;23.50;;;8.30;;
71763;SDS011;59602;52.142;5.408;2022-11-20T14:15:27;23.88;;;9.45;;
71763;SDS011;59602;52.142;5.408;2022-11-20T14:17:56;21.52;;;9.30;;
71763;SDS011;59602;52.142;5.408;2022-11-20T14:20:24;21.90;;;9.77;;
71763;SDS011;59602;52.142;5.408;2022-11-20T14:22:53;24.92;;;9.65;;
71763;SDS011;59602;52.142;5.408;2022-11-20T14:25:22;24.63;;;9.90;;
71763;SDS011;59602;52.142;5.408;2022-11-20T14:27:53;33.08;;;15.32;;
71763;SDS011;59602;52.142;5.408;2022-11-20T14:30:23;29.15;;;11.25;;
71763;SDS011;59602;52.142;5.408;2022-11-20T14:32:53;23.98;;;10.18;;
71763;SDS011;59602;52.142;5.408;2022-11-20T14:35:27;23.52;;;9.23;;
71763;SDS011;59602;52.142;5.408;2022-11-20T14:37:56;26.10;;;9.30;;
71763;SDS011;59602;52.142;5.408;2022-11-20T14:42:52;23.80;;;10.30;;
71763;SDS011;59602;52.142;5.408;2022-11-20T14:45:44;26.00;;;10.30;;
71763;SDS011;59602;52.142;5.408;2022-11-20T14:48:17;23.75;;;9.50;;
71763;SDS011;59602;52.142;5.408;2022-11-20T14:50:45;24.57;;;9.23;;
71763;SDS011;59602;52.142;5.408;2022-11-20T14:53:21;22.88;;;9.02;;
71763;SDS011;59602;52.142;5.408;2022-11-20T14:55:58;22.95;;;9.68;;
71763;SDS011;59602;52.142;5.408;2022-11-20T14:58:29;26.45;;;10.65;;
71763;SDS011;59602;52.142;5.408;2022-11-20T15:01:00;25.45;;;10.15;;
71763;SDS011;59602;52.142;5.408;2022-11-20T15:03:37;24.77;;;9.83;;
71763;SDS011;59602;52.142;5.408;2022-11-20T15:06:49;21.63;;;9.88;;
71763;SDS011;59602;52.142;5.408;2022-11-20T15:09:19;24.65;;;9.82;;
71763;SDS011;59602;52.142;5.408;2022-11-20T15:11:53;27.10;;;9.73;;
71763;SDS011;59602;52.142;5.408;2022-11-20T15:14:24;26.50;;;9.90;;
71763;SDS011;59602;52.142;5.408;2022-11-20T15:16:55;24.93;;;9.47;;
71763;SDS011;59602;52.142;5.408;2022-11-20T15:19:24;27.15;;;10.07;;
71763;SDS011;59602;52.142;5.408;2022-11-20T15:21:53;24.25;;;9.68;;
71763;SDS011;59602;52.142;5.408;2022-11-20T15:24:20;23.33;;;9.70;;
71763;SDS011;59602;52.142;5.408;2022-11-20T15:26:47;24.27;;;9.95;;
71763;SDS011;59602;52.142;5.408;2022-11-20T15:29:14;23.87;;;10.23;;
71763;SDS011;59602;52.142;5.408;2022-11-20T15:31:45;23.63;;;10.10;;
71763;SDS011;59602;52.142;5.408;2022-11-20T15:34:12;24.73;;;10.95;;
71763;SDS011;59602;52.142;5.408;2022-11-20T15:36:41;25.60;;;10.75;;
71763;SDS011;59602;52.142;5.408;2022-11-20T15:39:08;23.65;;;11.35;;
71763;SDS011;59602;52.142;5.408;2022-11-20T15:41:35;26.83;;;10.43;;
71763;SDS011;59602;52.142;5.408;2022-11-20T15:44:03;25.13;;;11.20;;
71763;SDS011;59602;52.142;5.408;2022-11-20T15:46:31;32.08;;;13.60;;
71763;SDS011;59602;52.142;5.408;2022-11-20T15:49:05;37.08;;;14.40;;
71763;SDS011;59602;52.142;5.408;2022-11-20T15:51:34;29.75;;;12.63;;
71763;SDS011;59602;52.142;5.408;2022-11-20T15:54:09;40.87;;;16.73;;
71763;SDS011;59602;52.142;5.408;2022-11-20T15:56:37;39.70;;;19.13;;
71763;SDS011;59602;52.142;5.408;2022-11-20T15:59:04;33.42;;;14.18;;
71763;SDS011;59602;52.142;5.408;2022-11-20T16:01:31;31.33;;;12.45;;
71763;SDS011;59602;52.142;5.408;2022-11-20T16:03:58;32.03;;;13.65;;
71763;SDS011;59602;52.142;5.408;2022-11-20T16:06:25;33.23;;;14.13;;
71763;SDS011;59602;52.142;5.408;2022-11-20T16:08:52;31.48;;;13.32;;
71763;SDS011;59602;52.142;5.408;2022-11-20T16:11:19;30.83;;;12.68;;
71763;SDS011;59602;52.142;5.408;2022-11-20T16:13:45;30.92;;;12.82;;